Главная страница
METAR-TAF:

METAR-TAF

Аэропорты :

Илам, Иран

широта: 33-35-09N, долгота: 046-24-20E, высота над уровнем моря: 1334 м

Текущие метеонаблюдения

Эта сводка был подготовлена 35 минут назад, в 00:00 UTC
Ветер 4 Узел от северный
Температура 14°C
Влажность 44%
Давление 1021 hPa
Видимость 10 км и более
Нет облачности ниже 1500 м, и нет кучево-дождевой облачности

METAR: OICI 190000Z 36004KT CAVOK 14/02 Q1021 A3016

Время: 05:05 (00:35 UTC)

Прогноз

Эта сводка был подготовлена 1 час и 5 минут назад, в 23:30 UTC
Прогноз действительный с 19-го 00 UTC до 20-го 06 UTC
Ветер 8 Узел от северо-северо-восточный
Видимость: 8000 м
временами
С 19-го 06 UTC до 19-го 15 UTC
Ветер 15 Узел от северно-северо-западный с порывами до 25 Узел
небольшая облачность на высоте 3500 фута, Кучево-дождевые.
Отдельные облака на высоте 4000 фута
Рассеянная облачность на высоте 10000 фута

TAF: OICI 182330Z 1900/2006 03008KT 8000 NSC TEMPO 1906/1915 34015G25KT FEW035CB SCT040 BKN100

Метеонаблюдения и прогнозы для более 4000 аэропортов (сводки METAR и TAF).

Имеющиеся станции представлены на карте желтыми и красными точками.

Чтобы увидеть название станции, наведите на нее мышь.

Затем щелкните, чтобы увидеть метеонаблюдения и метеопрогнозы.

Управление картой: чтобы увеличить масштаб, щелкните зеленые кнопки с черным крестиком; чтобы уменьшить масштаб, щелкните зеленую кнопку с тире; для просмотра соседних карт щелкайте зеленые стрелки.


METAR-TAF: